createdAt,value
2023-01-06T00:00:05.420Z,5.74
2023-01-06T00:01:04.702Z,5.61
2023-01-06T00:02:01.664Z,5.65
2023-01-06T00:02:58.316Z,5.82
2023-01-06T00:03:59.101Z,5.79
2023-01-06T00:04:55.807Z,5.64
2023-01-06T00:05:58.082Z,5.52
2023-01-06T00:06:54.721Z,5.65
2023-01-06T00:07:52.940Z,5.91
2023-01-06T00:08:49.597Z,5.40
2023-01-06T00:09:46.179Z,6.02
2023-01-06T00:10:42.780Z,5.64
2023-01-06T00:11:39.431Z,5.62
2023-01-06T00:12:36.679Z,5.81
2023-01-06T00:13:33.403Z,5.79
2023-01-06T00:14:30.202Z,5.78
2023-01-06T00:15:26.842Z,5.58
2023-01-06T00:16:24.204Z,5.52
2023-01-06T00:17:20.940Z,5.80
2023-01-06T00:18:17.553Z,5.82
2023-01-06T00:19:14.421Z,5.91
2023-01-06T00:20:12.131Z,5.89
2023-01-06T00:21:09.576Z,5.75
2023-01-06T00:22:06.270Z,5.95
2023-01-06T00:23:03.777Z,5.98
2023-01-06T00:24:00.376Z,6.05
2023-01-06T00:24:56.973Z,6.11
2023-01-06T00:25:53.969Z,5.91
2023-01-06T00:26:50.590Z,5.65
2023-01-06T00:27:47.195Z,5.87
2023-01-06T00:28:44.009Z,5.96
2023-01-06T00:29:40.595Z,6.18
2023-01-06T00:30:37.345Z,6.12
2023-01-06T00:31:34.061Z,6.18
2023-01-06T00:32:30.718Z,6.22
2023-01-06T00:33:29.038Z,6.06
2023-01-06T00:34:25.899Z,5.78
2023-01-06T00:35:22.620Z,5.69
2023-01-06T00:36:21.546Z,5.65
2023-01-06T00:37:18.243Z,5.89
2023-01-06T00:38:14.902Z,5.79
2023-01-06T00:39:13.472Z,6.01
2023-01-06T00:40:10.529Z,5.98
2023-01-06T00:41:29.042Z,5.78
2023-01-06T00:42:25.815Z,5.67
2023-01-06T00:43:22.413Z,5.45
2023-01-06T00:44:18.992Z,5.95
2023-01-06T00:45:15.813Z,5.81
2023-01-06T00:46:12.451Z,4.91
2023-01-06T00:47:10.582Z,5.87
2023-01-06T00:48:07.190Z,5.81
2023-01-06T00:49:06.677Z,5.84
2023-01-06T00:50:04.280Z,6.07
2023-01-06T00:51:01.407Z,5.92
2023-01-06T00:51:58.061Z,5.45
2023-01-06T00:52:54.631Z,5.84
2023-01-06T00:53:51.263Z,6.08
2023-01-06T00:54:47.969Z,5.91
2023-01-06T00:55:44.607Z,5.65
2023-01-06T00:56:46.917Z,5.66
2023-01-06T00:57:43.599Z,5.75
2023-01-06T00:58:40.174Z,5.42
2023-01-06T00:59:36.875Z,5.51
2023-01-06T01:00:33.505Z,5.58
2023-01-06T01:01:30.202Z,5.93
2023-01-06T01:02:26.917Z,5.68
2023-01-06T01:03:23.703Z,5.78
2023-01-06T01:04:21.819Z,5.93
2023-01-06T01:05:18.423Z,5.76
2023-01-06T01:06:16.687Z,5.70
2023-01-06T01:07:13.548Z,5.93
2023-01-06T01:08:10.100Z,5.69
2023-01-06T01:09:07.918Z,5.47
2023-01-06T01:10:04.834Z,5.81
2023-01-06T01:11:10.406Z,5.73
2023-01-06T01:12:09.883Z,5.73
2023-01-06T01:13:06.553Z,5.57
2023-01-06T01:14:03.227Z,5.58
2023-01-06T01:14:59.846Z,5.75
2023-01-06T01:15:56.549Z,5.69
2023-01-06T01:16:53.189Z,5.53
2023-01-06T01:17:49.773Z,5.73
2023-01-06T01:18:46.357Z,5.70
2023-01-06T01:19:42.966Z,5.20
2023-01-06T01:20:39.561Z,5.35
2023-01-06T01:21:36.369Z,5.37
2023-01-06T01:22:33.295Z,5.49
2023-01-06T01:23:29.949Z,5.49
2023-01-06T01:24:26.571Z,5.47
2023-01-06T01:25:23.189Z,5.33
2023-01-06T01:26:19.828Z,5.27
2023-01-06T01:27:17.238Z,5.55
2023-01-06T01:28:13.846Z,5.49
2023-01-06T01:29:15.662Z,5.40
2023-01-06T01:30:12.365Z,5.58
2023-01-06T01:31:09.144Z,5.42
2023-01-06T01:32:06.554Z,5.43
2023-01-06T01:33:03.127Z,4.94
2023-01-06T01:34:00.975Z,5.23
2023-01-06T01:34:57.556Z,5.49
2023-01-06T01:35:54.165Z,5.82
2023-01-06T01:36:52.892Z,5.54
2023-01-06T01:37:49.441Z,5.48
2023-01-06T01:38:46.240Z,5.62
2023-01-06T01:39:43.064Z,5.54
2023-01-06T01:40:46.606Z,5.58
2023-01-06T01:41:43.750Z,5.62
2023-01-06T01:42:40.485Z,5.73
2023-01-06T01:44:24.990Z,5.91
2023-01-06T01:45:27.117Z,5.71
2023-01-06T01:46:27.460Z,5.99
2023-01-06T01:47:42.189Z,5.80
2023-01-06T01:48:39.613Z,5.70
2023-01-06T01:49:39.307Z,5.62
2023-01-06T01:50:48.369Z,5.43
2023-01-06T01:51:47.727Z,5.66
2023-01-06T01:52:47.291Z,5.66
2023-01-06T01:53:48.602Z,5.18
2023-01-06T01:54:46.323Z,5.49
2023-01-06T01:55:43.626Z,5.05
2023-01-06T01:56:43.518Z,5.34
2023-01-06T01:57:46.099Z,5.38
2023-01-06T01:59:07.043Z,5.37
2023-01-06T02:00:08.117Z,5.70
2023-01-06T02:01:07.310Z,4.87
2023-01-06T02:02:04.245Z,6.06
2023-01-06T02:03:01.420Z,5.91
2023-01-06T02:03:59.519Z,5.78
2023-01-06T02:04:56.410Z,5.72
2023-01-06T02:05:57.619Z,5.87
2023-01-06T02:06:55.129Z,5.71
2023-01-06T02:07:52.164Z,5.69
2023-01-06T02:09:06.816Z,6.00
2023-01-06T02:10:12.331Z,5.98
2023-01-06T02:11:09.845Z,5.92
2023-01-06T02:12:06.879Z,5.81
2023-01-06T02:13:03.977Z,5.99
2023-01-06T02:14:15.936Z,5.61
2023-01-06T02:15:37.344Z,5.66
2023-01-06T02:16:36.992Z,5.97
2023-01-06T02:17:59.872Z,5.88
2023-01-06T02:19:28.026Z,5.24
2023-01-06T02:20:36.895Z,5.98
2023-01-06T02:22:04.206Z,5.66
2023-01-06T02:23:28.364Z,6.06
2023-01-06T02:24:55.341Z,5.92
2023-01-06T02:26:19.437Z,5.85
2023-01-06T02:27:38.076Z,5.99
2023-01-06T02:28:40.729Z,5.97
2023-01-06T02:30:01.747Z,5.92
2023-01-06T02:31:16.747Z,5.81
2023-01-06T02:32:14.839Z,5.86
2023-01-06T02:33:22.489Z,5.74
2023-01-06T02:34:48.032Z,5.89
2023-01-06T02:35:50.499Z,6.00
2023-01-06T02:36:50.085Z,5.92
2023-01-06T02:38:10.493Z,5.99
2023-01-06T02:39:26.851Z,5.77
2023-01-06T02:40:26.454Z,5.61
2023-01-06T02:41:37.995Z,5.40
2023-01-06T02:42:43.173Z,5.59
2023-01-06T02:44:27.849Z,5.74
2023-01-06T02:45:42.342Z,5.68
2023-01-06T02:46:45.154Z,5.82
2023-01-06T02:47:41.766Z,5.80
2023-01-06T02:49:03.466Z,5.51
2023-01-06T02:50:24.488Z,5.49
2023-01-06T02:51:30.123Z,5.43
2023-01-06T02:53:05.528Z,5.38
2023-01-06T02:54:20.807Z,5.37
2023-01-06T02:55:26.635Z,5.49
2023-01-06T02:56:28.882Z,5.43
2023-01-06T02:57:50.685Z,5.40
2023-01-06T02:58:53.666Z,5.52
2023-01-06T03:00:14.633Z,5.51
2023-01-06T03:01:20.116Z,5.33
2023-01-06T03:02:19.145Z,4.94
2023-01-06T03:03:19.690Z,5.28
2023-01-06T03:04:22.453Z,5.39
2023-01-06T03:05:19.584Z,5.52
2023-01-06T03:06:20.921Z,5.26
2023-01-06T03:07:21.346Z,5.26
2023-01-06T03:08:26.063Z,4.88
2023-01-06T03:09:29.148Z,4.89
2023-01-06T03:10:28.156Z,5.23
2023-01-06T03:11:30.777Z,5.40
2023-01-06T03:12:33.641Z,5.28
2023-01-06T03:13:43.053Z,5.24
2023-01-06T03:14:44.845Z,5.21
2023-01-06T03:15:41.626Z,5.57
2023-01-06T03:16:38.224Z,5.57
2023-01-06T03:17:35.061Z,5.27
2023-01-06T03:18:32.790Z,4.83
2023-01-06T03:19:29.688Z,5.15
2023-01-06T03:20:26.262Z,5.13
2023-01-06T03:21:27.182Z,4.97
2023-01-06T03:22:24.345Z,5.24
2023-01-06T03:23:21.293Z,4.98
2023-01-06T03:24:18.744Z,5.20
2023-01-06T03:25:15.588Z,5.28
2023-01-06T03:26:12.352Z,5.18
2023-01-06T03:27:09.595Z,4.98
2023-01-06T03:28:06.269Z,5.36
2023-01-06T03:29:07.900Z,5.41
2023-01-06T03:30:09.920Z,5.37
2023-01-06T03:31:09.620Z,5.03
2023-01-06T03:32:21.063Z,4.85
2023-01-06T03:33:38.373Z,4.98
2023-01-06T03:35:13.970Z,4.97
2023-01-06T03:36:25.759Z,5.04
2023-01-06T03:37:34.326Z,4.86
2023-01-06T03:39:06.188Z,4.69
2023-01-06T03:40:11.821Z,4.63
2023-01-06T03:41:14.413Z,4.75
2023-01-06T03:42:48.429Z,4.67
2023-01-06T03:44:12.393Z,4.55
2023-01-06T03:45:32.670Z,4.55
2023-01-06T03:46:38.585Z,4.47
2023-01-06T03:47:48.647Z,4.56
2023-01-06T03:48:57.481Z,4.45
2023-01-06T03:50:03.186Z,4.45
2023-01-06T03:51:38.055Z,4.55
2023-01-06T03:52:42.291Z,4.38
2023-01-06T03:53:57.272Z,4.43
2023-01-06T03:55:03.281Z,4.40
2023-01-06T03:56:14.041Z,4.61
2023-01-06T03:57:26.482Z,4.60
2023-01-06T03:58:24.816Z,4.09
2023-01-06T03:59:25.818Z,4.29
2023-01-06T04:00:26.385Z,3.85
2023-01-06T04:01:25.078Z,4.24
2023-01-06T04:02:22.788Z,4.08
2023-01-06T04:03:25.238Z,3.79
2023-01-06T04:04:21.778Z,3.66
2023-01-06T04:05:21.852Z,3.50
2023-01-06T04:06:18.504Z,3.60
2023-01-06T04:07:15.088Z,3.60
2023-01-06T04:08:11.795Z,3.48
2023-01-06T04:09:08.588Z,3.49
2023-01-06T04:10:06.621Z,3.63
2023-01-06T04:11:03.600Z,3.49
2023-01-06T04:12:18.338Z,3.29
2023-01-06T04:13:15.121Z,3.38
2023-01-06T04:14:11.759Z,3.25
2023-01-06T04:15:21.295Z,3.77
2023-01-06T04:16:17.913Z,2.79
2023-01-06T04:17:14.679Z,3.98
2023-01-06T04:18:11.483Z,3.81
2023-01-06T04:19:08.170Z,4.00
2023-01-06T04:20:06.426Z,4.08
2023-01-06T04:21:08.933Z,4.06
2023-01-06T04:22:05.473Z,4.25
2023-01-06T04:23:02.127Z,3.82
2023-01-06T04:23:58.836Z,3.80
2023-01-06T04:24:55.621Z,4.22
2023-01-06T04:25:52.325Z,3.91
2023-01-06T04:26:49.028Z,3.60
2023-01-06T04:27:45.636Z,3.53
2023-01-06T04:28:43.428Z,2.82
2023-01-06T04:29:40.099Z,3.33
2023-01-06T04:30:36.748Z,3.47
2023-01-06T04:31:35.434Z,3.16
2023-01-06T04:32:32.735Z,3.41
2023-01-06T04:33:29.461Z,3.19
2023-01-06T04:34:26.222Z,3.43
2023-01-06T04:35:23.199Z,3.46
2023-01-06T04:36:23.313Z,3.46
2023-01-06T04:37:21.412Z,3.34
2023-01-06T04:38:18.205Z,3.37
2023-01-06T04:39:14.843Z,3.47
2023-01-06T04:40:11.760Z,3.27
2023-01-06T04:41:08.648Z,3.31
2023-01-06T04:42:06.262Z,3.42
2023-01-06T04:43:05.756Z,3.63
2023-01-06T04:44:02.427Z,3.40
2023-01-06T04:44:59.074Z,3.44
2023-01-06T04:45:59.164Z,3.51
2023-01-06T04:46:55.836Z,3.39
2023-01-06T04:47:52.546Z,3.07
2023-01-06T04:48:49.114Z,3.14
2023-01-06T04:49:45.677Z,3.32
2023-01-06T04:50:42.441Z,3.24
2023-01-06T04:51:39.162Z,3.12
2023-01-06T04:52:35.765Z,3.06
2023-01-06T04:53:37.464Z,3.32
2023-01-06T04:54:34.585Z,3.14
2023-01-06T04:55:31.542Z,3.62
2023-01-06T04:56:28.296Z,3.70
2023-01-06T04:57:24.951Z,4.03
2023-01-06T04:58:21.567Z,3.94
2023-01-06T04:59:18.445Z,3.73
2023-01-06T05:00:15.517Z,3.87
2023-01-06T05:01:13.563Z,4.14
2023-01-06T05:02:10.298Z,4.43
2023-01-06T05:03:06.977Z,4.34
2023-01-06T05:04:06.171Z,4.25
2023-01-06T05:05:03.648Z,4.24
2023-01-06T05:06:02.507Z,4.26
2023-01-06T05:06:59.144Z,4.31
2023-01-06T05:07:55.939Z,4.12
2023-01-06T05:08:52.667Z,4.23
2023-01-06T05:09:49.400Z,4.40
2023-01-06T05:10:46.126Z,4.26
2023-01-06T05:11:42.768Z,4.06
2023-01-06T05:12:39.556Z,3.97
2023-01-06T05:13:36.385Z,3.86
2023-01-06T05:14:32.979Z,3.66
2023-01-06T05:15:29.946Z,3.84
2023-01-06T05:16:30.844Z,3.93
2023-01-06T05:17:28.045Z,3.82
2023-01-06T05:18:24.911Z,4.07
2023-01-06T05:19:21.661Z,3.83
2023-01-06T05:20:18.407Z,3.75
2023-01-06T05:21:15.178Z,3.61
2023-01-06T05:22:12.106Z,3.61
2023-01-06T05:23:08.790Z,3.82
2023-01-06T05:24:05.715Z,3.81
2023-01-06T05:25:02.405Z,3.97
2023-01-06T05:25:59.161Z,3.87
2023-01-06T05:26:55.777Z,4.08
2023-01-06T05:27:52.520Z,3.99
2023-01-06T05:28:49.208Z,3.89
2023-01-06T05:29:45.883Z,3.96
2023-01-06T05:30:42.538Z,4.05
2023-01-06T05:31:39.218Z,3.73
2023-01-06T05:32:35.932Z,3.68
2023-01-06T05:33:33.569Z,3.69
2023-01-06T05:34:30.403Z,3.36
2023-01-06T05:35:27.120Z,3.21
2023-01-06T05:36:24.294Z,3.65
2023-01-06T05:37:20.945Z,3.87
2023-01-06T05:38:17.581Z,3.57
2023-01-06T05:39:14.303Z,3.86
2023-01-06T05:40:11.127Z,3.69
2023-01-06T05:41:07.963Z,3.60
2023-01-06T05:42:04.720Z,3.70
2023-01-06T05:43:01.459Z,3.68
2023-01-06T05:43:58.380Z,3.44
2023-01-06T05:44:55.098Z,3.75
2023-01-06T05:45:52.912Z,3.89
2023-01-06T05:46:49.777Z,3.94
2023-01-06T05:47:46.407Z,3.91
2023-01-06T05:48:42.979Z,3.86
2023-01-06T05:49:39.652Z,3.63
2023-01-06T05:50:36.301Z,3.78
2023-01-06T05:51:33.028Z,4.01
2023-01-06T05:52:29.674Z,3.92
2023-01-06T05:53:26.232Z,4.10
2023-01-06T05:54:22.850Z,4.12
2023-01-06T05:55:19.478Z,3.63
2023-01-06T05:56:18.727Z,3.80
2023-01-06T05:57:15.300Z,3.70
2023-01-06T05:58:11.854Z,3.91
2023-01-06T05:59:08.439Z,3.89
2023-01-06T06:00:06.508Z,3.99
2023-01-06T06:01:04.922Z,3.82
2023-01-06T06:02:01.598Z,3.78
2023-01-06T06:02:58.332Z,3.82
2023-01-06T06:03:55.590Z,3.77
2023-01-06T06:04:52.403Z,3.87
2023-01-06T06:05:49.044Z,3.88
2023-01-06T06:06:45.803Z,3.81
2023-01-06T06:07:42.469Z,4.08
2023-01-06T06:08:39.127Z,4.07
2023-01-06T06:09:35.791Z,3.71
2023-01-06T06:10:32.527Z,3.96
2023-01-06T06:11:29.178Z,4.00
2023-01-06T06:12:25.804Z,3.96
2023-01-06T06:13:24.360Z,3.66
2023-01-06T06:14:21.410Z,4.23
2023-01-06T06:15:18.757Z,3.71
2023-01-06T06:16:17.095Z,4.03
2023-01-06T06:17:13.773Z,4.18
2023-01-06T06:18:10.335Z,4.20
2023-01-06T06:19:07.040Z,4.18
2023-01-06T06:20:04.175Z,4.09
2023-01-06T06:21:04.903Z,4.29
2023-01-06T06:22:01.579Z,4.35
2023-01-06T06:22:58.190Z,4.34
2023-01-06T06:23:57.041Z,4.31
2023-01-06T06:24:53.721Z,4.45
2023-01-06T06:25:50.524Z,4.12
2023-01-06T06:26:47.130Z,4.35
2023-01-06T06:27:43.806Z,4.36
2023-01-06T06:28:41.033Z,4.37
2023-01-06T06:29:37.618Z,4.23
2023-01-06T06:30:34.200Z,4.29
2023-01-06T06:31:31.050Z,4.41
2023-01-06T06:32:30.921Z,4.45
2023-01-06T06:33:27.606Z,4.25
2023-01-06T06:34:24.641Z,4.29
2023-01-06T06:35:21.334Z,4.49
2023-01-06T06:36:18.188Z,4.65
2023-01-06T06:37:14.915Z,4.79
2023-01-06T06:38:11.541Z,4.53
2023-01-06T06:39:08.216Z,4.62
2023-01-06T06:40:05.521Z,4.73
2023-01-06T06:41:02.252Z,4.64
2023-01-06T06:41:58.929Z,4.68
2023-01-06T06:42:55.602Z,4.55
2023-01-06T06:43:52.721Z,4.65
2023-01-06T06:44:51.942Z,4.63
2023-01-06T06:45:49.169Z,4.62
2023-01-06T06:46:45.918Z,4.43
2023-01-06T06:47:42.549Z,4.54
2023-01-06T06:48:39.614Z,4.85
2023-01-06T06:49:36.212Z,4.39
2023-01-06T06:50:32.817Z,4.87
2023-01-06T06:51:30.080Z,4.76
2023-01-06T06:52:26.698Z,4.85
2023-01-06T06:53:23.343Z,5.00
2023-01-06T06:54:19.940Z,4.98
2023-01-06T06:55:16.674Z,5.11
2023-01-06T06:56:14.699Z,5.14
2023-01-06T06:57:11.511Z,5.00
2023-01-06T06:58:08.304Z,5.17
2023-01-06T06:59:04.936Z,5.14
2023-01-06T07:00:01.584Z,5.13
2023-01-06T07:00:58.387Z,5.25
2023-01-06T07:01:55.216Z,5.25
2023-01-06T07:02:52.032Z,5.30
2023-01-06T07:03:49.207Z,5.24
2023-01-06T07:04:45.802Z,5.36
2023-01-06T07:05:44.731Z,5.50
2023-01-06T07:06:41.544Z,5.39
2023-01-06T07:07:38.116Z,5.20
2023-01-06T07:08:34.908Z,5.28
2023-01-06T07:09:31.505Z,5.43
2023-01-06T07:10:28.224Z,5.37
2023-01-06T07:11:24.807Z,5.48
2023-01-06T07:12:21.388Z,5.62
2023-01-06T07:13:18.143Z,5.53
2023-01-06T07:14:14.713Z,5.65
2023-01-06T07:15:11.363Z,5.69
2023-01-06T07:16:08.613Z,5.74
2023-01-06T07:17:05.424Z,5.89
2023-01-06T07:18:03.523Z,5.87
2023-01-06T07:19:00.146Z,5.65
2023-01-06T07:19:56.860Z,5.74
2023-01-06T07:20:54.175Z,5.73
2023-01-06T07:21:50.855Z,5.84
2023-01-06T07:22:47.529Z,5.76
2023-01-06T07:23:44.555Z,5.74
2023-01-06T07:24:41.205Z,5.76
2023-01-06T07:25:37.939Z,5.86
2023-01-06T07:26:34.546Z,6.08
2023-01-06T07:27:31.223Z,5.84
2023-01-06T07:28:29.704Z,5.82
2023-01-06T07:29:26.289Z,5.96
2023-01-06T07:30:24.176Z,6.16
2023-01-06T07:31:20.881Z,6.26
2023-01-06T07:32:17.535Z,6.33
2023-01-06T07:33:14.391Z,6.09
2023-01-06T07:34:11.120Z,6.27
2023-01-06T07:35:08.513Z,6.15
2023-01-06T07:36:05.538Z,6.46
2023-01-06T07:37:02.303Z,6.40
2023-01-06T07:38:06.338Z,6.53
2023-01-06T07:39:04.056Z,6.19
2023-01-06T07:40:00.778Z,6.44
2023-01-06T07:41:01.396Z,6.52
2023-01-06T07:41:58.030Z,6.50
2023-01-06T07:42:54.656Z,6.79
2023-01-06T07:43:51.247Z,6.97
2023-01-06T07:44:47.869Z,6.70
2023-01-06T07:45:47.700Z,6.87
2023-01-06T07:46:44.331Z,6.70
2023-01-06T07:47:40.962Z,6.99
2023-01-06T07:48:37.759Z,6.87
2023-01-06T07:49:34.449Z,7.16
2023-01-06T07:50:32.745Z,7.23
2023-01-06T07:51:29.448Z,6.71
2023-01-06T07:52:26.017Z,6.86
2023-01-06T07:53:22.816Z,7.04
2023-01-06T07:54:19.412Z,6.76
2023-01-06T07:55:16.024Z,7.10
2023-01-06T07:56:12.857Z,6.92
2023-01-06T07:57:09.571Z,6.88
2023-01-06T07:58:07.801Z,6.87
2023-01-06T07:59:04.574Z,7.25
2023-01-06T08:00:01.191Z,7.43
2023-01-06T08:00:57.808Z,7.59
2023-01-06T08:01:55.298Z,7.28
2023-01-06T08:02:52.034Z,7.37
2023-01-06T08:03:48.790Z,7.35
2023-01-06T08:04:45.475Z,7.35
2023-01-06T08:05:42.895Z,7.37
2023-01-06T08:06:40.364Z,7.65
2023-01-06T08:07:36.956Z,7.58
2023-01-06T08:08:39.920Z,7.68
2023-01-06T08:09:37.217Z,7.67
2023-01-06T08:10:33.936Z,7.56
2023-01-06T08:11:30.531Z,7.75
2023-01-06T08:12:27.164Z,7.76
2023-01-06T08:13:23.826Z,7.49
2023-01-06T08:14:20.500Z,7.47
2023-01-06T08:15:17.249Z,7.82
2023-01-06T08:16:14.053Z,8.05
2023-01-06T08:17:10.687Z,7.95
2023-01-06T08:18:08.036Z,7.66
2023-01-06T08:19:04.889Z,8.23
2023-01-06T08:20:01.652Z,8.37
2023-01-06T08:21:07.353Z,8.25
2023-01-06T08:22:04.066Z,8.08
2023-01-06T08:23:01.629Z,8.14
2023-01-06T08:23:58.498Z,8.25
2023-01-06T08:24:55.084Z,8.28
2023-01-06T08:25:51.718Z,8.09
2023-01-06T08:26:48.443Z,8.35
2023-01-06T08:27:45.180Z,8.21
2023-01-06T08:28:43.354Z,8.59
2023-01-06T08:29:39.963Z,8.28
2023-01-06T08:30:40.163Z,8.10
2023-01-06T08:31:36.898Z,8.29
2023-01-06T08:32:33.708Z,8.22
2023-01-06T08:33:30.424Z,8.31
2023-01-06T08:34:27.039Z,8.15
2023-01-06T08:35:23.853Z,8.49
2023-01-06T08:36:22.330Z,8.65
2023-01-06T08:37:19.037Z,8.63
2023-01-06T08:38:15.949Z,8.56
2023-01-06T08:39:14.112Z,8.59
2023-01-06T08:40:11.103Z,8.56
2023-01-06T08:41:08.003Z,8.98
2023-01-06T08:42:04.822Z,8.92
2023-01-06T08:43:01.512Z,8.35
2023-01-06T08:43:58.112Z,8.70
2023-01-06T08:44:54.752Z,8.72
2023-01-06T08:45:52.066Z,8.49
2023-01-06T08:46:48.892Z,8.77
2023-01-06T08:47:45.617Z,8.91
2023-01-06T08:48:42.365Z,8.86
2023-01-06T08:49:39.058Z,8.37
2023-01-06T08:50:35.952Z,8.67
2023-01-06T08:51:32.680Z,8.94
2023-01-06T08:52:29.274Z,8.88
2023-01-06T08:53:26.090Z,8.76
2023-01-06T08:54:22.834Z,9.01
2023-01-06T08:55:19.650Z,9.29
2023-01-06T08:56:19.437Z,8.76
2023-01-06T08:57:16.464Z,8.89
2023-01-06T08:58:13.157Z,8.76
2023-01-06T08:59:13.655Z,8.89
2023-01-06T09:00:10.777Z,9.14
2023-01-06T09:01:07.485Z,9.18
2023-01-06T09:02:04.295Z,9.12
2023-01-06T09:03:01.075Z,9.22
2023-01-06T09:04:00.054Z,9.02
2023-01-06T09:04:57.187Z,8.83
2023-01-06T09:05:55.640Z,8.93
2023-01-06T09:06:52.469Z,8.65
2023-01-06T09:07:52.704Z,8.89
2023-01-06T09:08:49.512Z,8.67
2023-01-06T09:09:46.205Z,8.82
2023-01-06T09:10:42.825Z,8.96
2023-01-06T09:11:43.637Z,8.94
2023-01-06T09:12:40.300Z,9.06
2023-01-06T09:13:37.772Z,9.01
2023-01-06T09:14:34.366Z,8.98
2023-01-06T09:15:32.086Z,8.96
2023-01-06T09:16:28.658Z,8.95
2023-01-06T09:17:25.464Z,8.95
2023-01-06T09:18:22.144Z,9.27
2023-01-06T09:19:20.587Z,9.14
2023-01-06T09:20:17.188Z,9.01
2023-01-06T09:21:14.182Z,9.28
2023-01-06T09:22:10.791Z,9.08
2023-01-06T09:23:07.395Z,9.47
2023-01-06T09:24:04.132Z,9.66
2023-01-06T09:25:00.783Z,9.34
2023-01-06T09:25:58.258Z,9.13
2023-01-06T09:26:54.925Z,9.05
2023-01-06T09:27:51.654Z,8.92
2023-01-06T09:28:48.488Z,9.06
2023-01-06T09:29:46.032Z,9.28
2023-01-06T09:30:42.718Z,8.83
2023-01-06T09:31:39.384Z,9.08
2023-01-06T09:32:36.092Z,8.90
2023-01-06T09:33:33.019Z,8.96
2023-01-06T09:34:29.967Z,8.87
2023-01-06T09:35:26.546Z,9.02
2023-01-06T09:36:23.335Z,8.77
2023-01-06T09:37:20.015Z,9.11
2023-01-06T09:38:17.040Z,9.36
2023-01-06T09:39:13.763Z,9.45
2023-01-06T09:40:17.811Z,9.08
2023-01-06T09:41:39.379Z,9.36
2023-01-06T09:42:54.620Z,9.55
2023-01-06T09:43:58.576Z,9.24
2023-01-06T09:45:12.100Z,9.46
2023-01-06T09:46:11.286Z,9.39
2023-01-06T09:47:12.070Z,9.17
2023-01-06T09:48:15.288Z,9.37
2023-01-06T09:49:27.548Z,9.22
2023-01-06T09:50:44.949Z,9.60
2023-01-06T09:51:42.585Z,9.76
2023-01-06T09:52:51.782Z,9.35
2023-01-06T09:53:54.702Z,9.58
2023-01-06T09:54:59.114Z,9.62
2023-01-06T09:56:02.821Z,9.28
2023-01-06T09:57:22.395Z,9.48
2023-01-06T09:58:25.751Z,8.89
2023-01-06T09:59:51.931Z,9.41
2023-01-06T10:00:52.876Z,8.99
2023-01-06T10:01:50.856Z,9.34
2023-01-06T10:02:47.693Z,9.20
2023-01-06T10:03:46.839Z,9.47
2023-01-06T10:04:43.485Z,9.50
2023-01-06T10:06:00.855Z,9.79
2023-01-06T10:07:13.726Z,9.44
2023-01-06T10:08:24.984Z,9.33
2023-01-06T10:09:42.671Z,9.91
2023-01-06T10:10:49.497Z,10.10
2023-01-06T10:12:07.469Z,10.28
2023-01-06T10:13:21.871Z,10.23
2023-01-06T10:14:43.088Z,10.07
2023-01-06T10:16:02.226Z,10.17
2023-01-06T10:17:10.877Z,9.61
2023-01-06T10:18:41.558Z,9.57
2023-01-06T10:19:50.120Z,9.88
2023-01-06T10:20:59.520Z,9.76
2023-01-06T10:22:33.538Z,10.17
2023-01-06T10:23:32.847Z,9.54
2023-01-06T10:24:37.911Z,9.33
2023-01-06T10:25:40.848Z,9.35
2023-01-06T10:26:44.878Z,9.10
2023-01-06T10:27:48.725Z,9.33
2023-01-06T10:28:56.757Z,8.93
2023-01-06T10:29:56.195Z,9.36
2023-01-06T10:30:56.237Z,9.14
2023-01-06T10:31:55.261Z,8.99
2023-01-06T10:32:51.976Z,9.06
2023-01-06T10:33:54.098Z,9.21
2023-01-06T10:34:51.358Z,9.19
2023-01-06T10:35:48.146Z,9.21
2023-01-06T10:36:46.912Z,9.19
2023-01-06T10:37:47.578Z,9.06
2023-01-06T10:38:47.831Z,9.41
2023-01-06T10:39:48.347Z,9.07
2023-01-06T10:40:45.131Z,9.20
2023-01-06T10:42:31.745Z,9.10
2023-01-06T10:43:29.504Z,9.01
2023-01-06T10:44:26.118Z,8.72
2023-01-06T10:45:27.714Z,8.57
2023-01-06T10:46:31.177Z,8.77
2023-01-06T10:47:33.281Z,8.66
2023-01-06T10:48:32.171Z,8.58
2023-01-06T10:49:28.846Z,8.60
2023-01-06T10:50:26.532Z,8.40
2023-01-06T10:51:39.245Z,8.34
2023-01-06T10:52:36.927Z,8.26
2023-01-06T10:53:33.746Z,8.37
2023-01-06T10:54:34.352Z,8.58
2023-01-06T10:55:53.130Z,8.38
2023-01-06T10:56:55.737Z,8.54
2023-01-06T10:57:53.945Z,8.65
2023-01-06T10:58:57.243Z,8.35
2023-01-06T11:00:09.468Z,8.35
2023-01-06T11:01:12.225Z,8.67
2023-01-06T11:02:22.904Z,8.71
2023-01-06T11:03:32.722Z,8.94
2023-01-06T11:04:30.653Z,9.14
2023-01-06T11:05:31.008Z,9.08
2023-01-06T11:06:29.149Z,9.05
2023-01-06T11:07:26.184Z,8.97
2023-01-06T11:08:23.117Z,9.29
2023-01-06T11:09:39.992Z,8.96
2023-01-06T11:10:38.881Z,9.28
2023-01-06T11:11:47.593Z,9.62
2023-01-06T11:12:47.991Z,9.55
2023-01-06T11:13:53.429Z,9.53
2023-01-06T11:14:59.945Z,9.27
2023-01-06T11:15:58.772Z,9.51
2023-01-06T11:17:04.104Z,9.39
2023-01-06T11:18:00.946Z,9.56
2023-01-06T11:19:01.482Z,9.19
2023-01-06T11:20:13.196Z,9.36
2023-01-06T11:21:12.452Z,9.49
2023-01-06T11:23:29.768Z,9.48
2023-01-06T11:24:27.476Z,9.39
2023-01-06T11:25:32.331Z,9.54
2023-01-06T11:26:28.936Z,9.27
2023-01-06T11:27:25.768Z,9.32
2023-01-06T11:28:22.333Z,9.11
2023-01-06T11:29:33.963Z,9.27
2023-01-06T11:30:30.595Z,8.78
2023-01-06T11:31:28.464Z,9.24
2023-01-06T11:32:29.528Z,9.48
2023-01-06T11:33:28.977Z,9.49
2023-01-06T11:34:29.172Z,9.42
2023-01-06T11:35:32.452Z,9.24
2023-01-06T11:36:32.455Z,9.14
2023-01-06T11:37:41.362Z,9.34
2023-01-06T11:38:43.679Z,9.38
2023-01-06T11:39:42.131Z,9.26
2023-01-06T11:40:38.971Z,9.27
2023-01-06T11:41:47.258Z,9.42
2023-01-06T11:42:48.150Z,9.04
2023-01-06T11:43:46.825Z,9.28
2023-01-06T11:44:45.282Z,9.35
2023-01-06T11:45:49.416Z,9.00
2023-01-06T11:46:52.456Z,8.90
2023-01-06T11:47:49.912Z,9.49
2023-01-06T11:48:50.093Z,9.35
2023-01-06T11:49:51.138Z,9.27
2023-01-06T11:50:59.498Z,9.31
2023-01-06T11:52:06.287Z,9.38
2023-01-06T11:53:15.108Z,9.26
2023-01-06T11:54:29.837Z,9.57
2023-01-06T11:55:27.533Z,9.74
2023-01-06T11:56:24.861Z,9.59
2023-01-06T11:57:46.252Z,9.79
2023-01-06T11:58:53.011Z,9.96
2023-01-06T12:00:11.450Z,9.58
2023-01-06T12:01:34.939Z,9.73
2023-01-06T12:02:48.648Z,9.80
2023-01-06T12:03:51.024Z,9.69
2023-01-06T12:04:52.169Z,10.03
2023-01-06T12:06:09.412Z,9.98
2023-01-06T12:07:32.064Z,10.20
2023-01-06T12:08:32.551Z,10.14
2023-01-06T12:09:38.273Z,10.21
2023-01-06T12:10:37.602Z,9.89
2023-01-06T12:11:47.139Z,10.18
2023-01-06T12:12:44.132Z,10.16
2023-01-06T12:13:44.802Z,10.11
2023-01-06T12:14:52.585Z,10.25
2023-01-06T12:16:03.078Z,9.74
2023-01-06T12:17:37.008Z,9.81
2023-01-06T12:18:38.376Z,10.18
2023-01-06T12:20:22.820Z,10.31
2023-01-06T12:21:29.071Z,10.39
2023-01-06T12:22:36.410Z,10.49
2023-01-06T12:23:37.297Z,10.10
2023-01-06T12:24:35.602Z,10.01
2023-01-06T12:25:38.055Z,9.75
2023-01-06T12:26:36.021Z,9.65
2023-01-06T12:27:43.366Z,9.63
2023-01-06T12:28:42.412Z,9.68
2023-01-06T12:29:39.337Z,9.72
2023-01-06T12:30:46.077Z,9.89
2023-01-06T12:31:57.947Z,10.11
2023-01-06T12:32:57.025Z,9.91
2023-01-06T12:34:24.730Z,9.56
2023-01-06T12:35:26.479Z,9.19
2023-01-06T12:36:31.214Z,9.51
2023-01-06T12:37:42.880Z,9.47
2023-01-06T12:38:55.299Z,9.67
2023-01-06T12:40:09.056Z,9.88
2023-01-06T12:41:14.012Z,9.80
2023-01-06T12:42:22.521Z,9.79
2023-01-06T12:43:33.351Z,9.64
2023-01-06T12:44:40.175Z,9.61
2023-01-06T12:45:57.743Z,9.75
2023-01-06T12:47:31.633Z,9.77
2023-01-06T12:48:45.071Z,9.58
2023-01-06T12:49:48.336Z,9.30
2023-01-06T12:51:03.834Z,9.10
2023-01-06T12:52:07.606Z,9.16
2023-01-06T12:53:23.101Z,9.25
2023-01-06T12:54:31.220Z,9.28
2023-01-06T12:55:45.329Z,9.35
2023-01-06T12:57:03.705Z,9.49
2023-01-06T12:58:27.096Z,9.62
2023-01-06T12:59:26.676Z,9.44
2023-01-06T13:00:29.597Z,9.15
2023-01-06T13:01:38.428Z,9.58
2023-01-06T13:03:02.317Z,9.30
2023-01-06T13:04:14.178Z,9.28
2023-01-06T13:05:40.462Z,9.26
2023-01-06T13:07:06.195Z,9.27
2023-01-06T13:08:30.628Z,8.88
2023-01-06T13:09:54.464Z,9.13
2023-01-06T13:10:50.967Z,9.26
2023-01-06T13:12:05.910Z,9.39
2023-01-06T13:13:17.854Z,9.25
2023-01-06T13:14:37.586Z,9.40
2023-01-06T13:15:38.773Z,9.46
2023-01-06T13:16:38.289Z,9.39
2023-01-06T13:17:47.113Z,9.76
2023-01-06T13:18:53.892Z,9.42
2023-01-06T13:20:06.389Z,9.39
2023-01-06T13:21:12.705Z,8.86
2023-01-06T13:22:14.414Z,9.35
2023-01-06T13:23:29.900Z,8.70
2023-01-06T13:25:03.816Z,9.12
2023-01-06T13:26:17.111Z,8.66
2023-01-06T13:27:38.052Z,8.67
2023-01-06T13:28:47.852Z,8.70
2023-01-06T13:29:52.805Z,8.36
2023-01-06T13:31:46.579Z,8.66
2023-01-06T13:33:17.196Z,8.68
2023-01-06T13:34:29.051Z,8.42
2023-01-06T13:35:31.684Z,8.61
2023-01-06T13:36:57.605Z,8.48
2023-01-06T13:38:33.062Z,8.68
2023-01-06T13:39:41.835Z,8.55
2023-01-06T13:40:40.137Z,8.66